Time;durP1;ratioP1;P1;durP2;ratioP2;P2;SDS_P1;SDS_P2;PMS_P1;PMS_P2;Temp;Humidity;BMP_temperature;BMP_pressure;BME280_temperature;BME280_humidity;BME280_pressure;Samples;Min_cycle;Max_cycle;Signal;HPM_P1;HPM_P2
2021/12/16 00:08:58;;;;;;;18.15;16.25;;;21.90;47.20;;;;;;5012459;28;20219;-73
2021/12/16 00:35:42;;;;;;;20.25;17.15;;;21.90;47.10;;;;;;4994939;28;20211;-73
2021/12/16 00:38:09;;;;;;;18.48;16.23;;;21.80;47.10;;;;;;4994860;28;20203;-73
2021/12/16 00:40:40;;;;;;;18.38;15.85;;;21.90;47.10;;;;;;4995178;28;20208;-73
2021/12/16 00:43:15;;;;;;;19.52;15.57;;;21.90;47.10;;;;;;4994735;28;20172;-73
2021/12/16 00:45:56;;;;;;;18.05;15.45;;;21.90;47.10;;;;;;4996691;28;20182;-73
2021/12/16 00:48:25;;;;;;;16.17;14.48;;;21.80;47.10;;;;;;4998577;28;20279;-73
2021/12/16 00:56:15;;;;;;;16.63;13.57;;;21.90;47.10;;;;;;4998742;28;20263;-72
2021/12/16 00:58:51;;;;;;;16.85;13.93;;;21.90;47.10;;;;;;4981925;28;20225;-73
2021/12/16 01:09:40;;;;;;;15.75;13.88;;;21.90;47.10;;;;;;4998051;28;20222;-72
2021/12/16 01:35:05;;;;;;;14.80;13.13;;;21.80;47.10;;;;;;4997656;28;20200;-73
2021/12/16 01:48:29;;;;;;;14.15;12.48;;;21.80;47.00;;;;;;4997398;28;20194;-73
2021/12/16 01:50:51;;;;;;;13.88;12.05;;;21.80;47.00;;;;;;5014864;28;20204;-73
2021/12/16 01:56:17;;;;;;;13.55;12.02;;;21.90;47.10;;;;;;4997689;28;20188;-73
2021/12/16 01:58:45;;;;;;;12.10;10.68;;;21.90;47.00;;;;;;4980810;28;20192;-73
2021/12/16 02:01:30;;;;;;;11.43;10.23;;;21.90;47.10;;;;;;4997158;28;20258;-73
2021/12/16 02:04:12;;;;;;;11.25;10.07;;;21.90;47.00;;;;;;4997554;28;20206;-73
2021/12/16 02:07:00;;;;;;;14.43;12.52;;;21.90;47.00;;;;;;4997276;28;20183;-73
2021/12/16 02:09:35;;;;;;;12.45;11.15;;;21.80;47.00;;;;;;4980822;28;20180;-73
2021/12/16 02:38:49;;;;;;;11.02;9.82;;;21.90;47.00;;;;;;4996394;28;20270;-72
2021/12/16 02:41:17;;;;;;;11.27;10.13;;;21.90;47.00;;;;;;4996527;28;20574;-72
2021/12/16 02:49:13;;;;;;;10.75;9.65;;;21.90;47.00;;;;;;4996460;28;20179;-73
2021/12/16 02:51:39;;;;;;;11.45;9.93;;;21.90;47.00;;;;;;4996348;28;20180;-73
2021/12/16 02:54:06;;;;;;;11.18;10.07;;;21.90;47.00;;;;;;4996310;28;20286;-73
2021/12/16 02:56:34;;;;;;;10.70;9.60;;;21.90;47.00;;;;;;4980124;28;20248;-73
2021/12/16 02:59:01;;;;;;;11.27;9.85;;;21.90;47.00;;;;;;4996262;28;20214;-73
2021/12/16 03:01:45;;;;;;;11.35;9.43;;;21.90;46.90;;;;;;4996164;28;20211;-73
2021/12/16 03:04:15;;;;;;;9.95;8.95;;;21.80;46.90;;;;;;4996060;28;20200;-73
2021/12/16 03:06:46;;;;;;;9.55;8.60;;;21.80;46.80;;;;;;4996244;28;20168;-73
2021/12/16 03:09:18;;;;;;;8.68;7.80;;;21.80;46.80;;;;;;4996003;28;20539;-73
2021/12/16 03:14:41;;;;;;;9.93;8.88;;;21.90;46.80;;;;;;5013442;28;20200;-73
2021/12/16 03:17:17;;;;;;;9.55;8.52;;;21.90;46.90;;;;;;4979785;28;20287;-73
2021/12/16 03:20:06;;;;;;;9.75;8.70;;;21.80;46.80;;;;;;4996001;28;20182;-73
2021/12/16 03:25:52;;;;;;;8.48;7.68;;;21.80;46.80;;;;;;4997457;28;20220;-73
2021/12/16 03:34:25;;;;;;;8.98;8.10;;;21.80;46.80;;;;;;4995881;28;20211;-73
2021/12/16 03:37:18;;;;;;;9.07;8.18;;;21.80;46.80;;;;;;4995689;28;20180;-73
2021/12/16 03:40:07;;;;;;;8.23;7.35;;;21.90;46.80;;;;;;4995649;28;20230;-73
2021/12/16 03:42:39;;;;;;;9.50;8.38;;;21.80;46.70;;;;;;4995555;28;20227;-72
2021/12/16 03:48:38;;;;;;;8.00;7.10;;;21.90;46.90;;;;;;5058939;28;20180;-70
2021/12/16 03:51:16;;;;;;;8.20;7.20;;;21.80;46.80;;;;;;5063368;28;20257;-71
2021/12/16 03:53:45;;;;;;;8.25;7.32;;;21.80;46.70;;;;;;5054491;28;20174;-71
2021/12/16 03:56:18;;;;;;;8.25;7.45;;;21.80;46.70;;;;;;5038977;28;20184;-71
2021/12/16 03:59:03;;;;;;;7.85;7.05;;;21.90;46.80;;;;;;5056889;28;20165;-71
2021/12/16 04:01:39;;;;;;;8.75;7.85;;;21.80;46.70;;;;;;5054442;28;20198;-71
2021/12/16 04:04:05;;;;;;;9.07;7.72;;;21.80;46.80;;;;;;5071062;28;20197;-71
2021/12/16 04:06:35;;;;;;;7.90;7.10;;;21.80;46.70;;;;;;5071482;28;20198;-71
2021/12/16 04:09:11;;;;;;;8.70;7.80;;;21.80;46.70;;;;;;5038292;28;20212;-71
2021/12/16 04:11:51;;;;;;;7.05;6.40;;;21.90;46.70;;;;;;5063648;28;20181;-70
2021/12/16 04:14:18;;;;;;;7.40;6.70;;;21.80;46.60;;;;;;5034737;28;20224;-70
2021/12/16 04:16:51;;;;;;;7.65;6.82;;;21.80;46.70;;;;;;5034747;28;20224;-71
2021/12/16 04:19:28;;;;;;;7.13;6.15;;;21.90;46.70;;;;;;5035511;28;20170;-71
2021/12/16 04:22:10;;;;;;;7.47;6.75;;;21.80;46.70;;;;;;5038756;28;20207;-71
2021/12/16 04:24:39;;;;;;;7.03;6.32;;;21.80;46.70;;;;;;5038456;28;20224;-71
2021/12/16 04:27:08;;;;;;;7.40;6.70;;;21.80;46.70;;;;;;5038702;28;20174;-71
2021/12/16 04:29:37;;;;;;;7.32;6.63;;;21.90;46.70;;;;;;5038451;28;20177;-71
2021/12/16 04:32:05;;;;;;;7.28;6.57;;;21.90;46.80;;;;;;5038467;28;20224;-71
2021/12/16 04:34:34;;;;;;;7.55;6.85;;;21.80;46.70;;;;;;5054607;28;20205;-71
2021/12/16 04:37:03;;;;;;;7.38;6.57;;;21.80;46.70;;;;;;5038245;28;20182;-71
2021/12/16 04:39:32;;;;;;;7.80;6.70;;;21.90;46.80;;;;;;5038028;28;20269;-71
2021/12/16 04:41:59;;;;;;;6.43;5.78;;;21.80;46.70;;;;;;5055440;28;20212;-71
2021/12/16 04:44:28;;;;;;;6.80;6.10;;;21.80;46.70;;;;;;5037512;28;20211;-72
2021/12/16 04:46:57;;;;;;;6.82;6.18;;;21.90;46.70;;;;;;5054436;28;20186;-70
2021/12/16 04:49:24;;;;;;;6.38;5.78;;;21.80;46.70;;;;;;5037761;28;20210;-70
2021/12/16 04:51:57;;;;;;;6.82;6.13;;;21.90;46.70;;;;;;5037950;28;20186;-70
2021/12/16 04:54:25;;;;;;;6.47;5.88;;;21.80;46.60;;;;;;5041942;28;20233;-70
2021/12/16 04:56:54;;;;;;;6.22;5.63;;;21.90;46.70;;;;;;5037956;28;20178;-71
2021/12/16 04:59:22;;;;;;;6.63;5.90;;;21.90;46.60;;;;;;5037695;28;20178;-70
2021/12/16 05:02:03;;;;;;;6.47;5.88;;;21.80;46.60;;;;;;5038376;28;20241;-71
2021/12/16 05:04:48;;;;;;;6.53;5.93;;;21.80;46.60;;;;;;5040144;28;20230;-71
2021/12/16 05:07:15;;;;;;;7.03;6.28;;;21.80;46.70;;;;;;5037657;28;20209;-71
2021/12/16 05:10:06;;;;;;;6.22;5.63;;;21.80;46.70;;;;;;5037576;28;20183;-71
2021/12/16 05:12:46;;;;;;;6.05;5.38;;;21.80;46.70;;;;;;5037813;28;20182;-71
2021/12/16 05:15:20;;;;;;;6.15;5.35;;;21.90;46.70;;;;;;5037505;28;20209;-71
2021/12/16 05:17:51;;;;;;;6.10;5.50;;;21.80;46.60;;;;;;5037296;28;20185;-71
2021/12/16 05:20:31;;;;;;;6.22;5.63;;;21.90;46.70;;;;;;5037436;28;20240;-70
2021/12/16 05:28:20;;;;;;;6.25;5.65;;;21.80;46.60;;;;;;5054070;28;20272;-71
2021/12/16 05:30:47;;;;;;;5.57;5.07;;;21.80;46.70;;;;;;5037452;28;20189;-70
2021/12/16 05:33:15;;;;;;;6.15;5.53;;;21.90;46.70;;;;;;5037525;28;20198;-71
2021/12/16 05:35:42;;;;;;;5.30;4.80;;;21.90;46.70;;;;;;5037093;28;20206;-71
2021/12/16 05:38:09;;;;;;;5.60;5.07;;;21.80;46.60;;;;;;5036945;28;20236;-71
2021/12/16 05:40:36;;;;;;;5.75;5.15;;;21.90;47.20;;;;;;5037118;28;20238;-71
2021/12/16 05:43:16;;;;;;;5.15;4.65;;;21.80;46.60;;;;;;5037344;28;20182;-71
2021/12/16 05:45:45;;;;;;;4.75;4.32;;;21.80;46.60;;;;;;5036971;28;20210;-71
2021/12/16 05:48:17;;;;;;;5.15;4.65;;;21.80;46.60;;;;;;5037013;28;20666;-71
2021/12/16 05:50:50;;;;;;;4.90;4.40;;;21.80;46.60;;;;;;5053709;28;20190;-71
2021/12/16 05:53:18;;;;;;;5.00;4.50;;;21.80;46.60;;;;;;5037090;28;20179;-71
2021/12/16 05:55:45;;;;;;;5.03;4.40;;;21.80;46.60;;;;;;5037003;28;20252;-71
2021/12/16 05:58:25;;;;;;;4.88;4.45;;;21.80;46.60;;;;;;5036998;28;20221;-71
2021/12/16 06:01:00;;;;;;;4.80;4.30;;;21.80;46.70;;;;;;5020252;28;20214;-71
2021/12/16 06:03:29;;;;;;;4.93;4.43;;;21.80;46.70;;;;;;5037136;28;20170;-72
2021/12/16 06:05:56;;;;;;;5.20;4.70;;;21.80;46.70;;;;;;5036771;28;20190;-71
2021/12/16 06:08:23;;;;;;;4.68;4.28;;;21.80;46.70;;;;;;5036307;28;20217;-71
2021/12/16 06:13:41;;;;;;;4.55;4.15;;;21.90;46.70;;;;;;5078607;28;20186;-71
2021/12/16 06:27:11;;;;;;;4.90;4.32;;;21.80;46.70;;;;;;5093415;28;20266;-71
2021/12/16 06:29:41;;;;;;;4.90;4.40;;;21.80;46.60;;;;;;5092866;28;20181;-71
2021/12/16 06:32:07;;;;;;;5.60;4.95;;;21.80;46.60;;;;;;5093100;28;20172;-71
2021/12/16 06:34:34;;;;;;;5.35;4.63;;;21.80;46.60;;;;;;5092753;28;20197;-72
2021/12/16 06:37:00;;;;;;;4.82;4.38;;;21.80;46.70;;;;;;5075804;28;20640;-72
2021/12/16 06:39:26;;;;;;;5.32;4.82;;;21.90;46.70;;;;;;5092849;28;20181;-72
2021/12/16 06:42:23;;;;;;;4.55;4.10;;;21.90;46.70;;;;;;5088247;28;20213;-71
2021/12/16 06:45:03;;;;;;;4.88;4.38;;;21.80;46.60;;;;;;5075868;28;20205;-72
2021/12/16 06:47:42;;;;;;;4.72;4.10;;;21.80;46.70;;;;;;5092483;28;20169;-70
2021/12/16 06:50:13;;;;;;;4.45;4.05;;;21.80;46.70;;;;;;5093902;28;20256;-71
2021/12/16 06:52:46;;;;;;;5.13;4.60;;;21.80;46.60;;;;;;5059567;28;20176;-71
2021/12/16 06:57:45;;;;;;;5.35;4.85;;;21.80;46.60;;;;;;5075268;28;20173;-71
2021/12/16 07:00:27;;;;;;;4.60;4.20;;;21.90;46.70;;;;;;5075469;28;20181;-71
2021/12/16 07:03:04;;;;;;;4.93;4.35;;;21.80;46.70;;;;;;5092425;28;20180;-71
2021/12/16 07:05:37;;;;;;;4.95;4.47;;;21.80;46.60;;;;;;5092202;28;20200;-71
2021/12/16 07:08:08;;;;;;;4.50;4.03;;;21.80;46.70;;;;;;5092151;28;20242;-71
2021/12/16 07:10:35;;;;;;;4.68;4.28;;;21.80;46.60;;;;;;5059017;28;20177;-71
2021/12/16 07:13:07;;;;;;;5.03;4.50;;;21.90;46.70;;;;;;5092139;28;20266;-71
2021/12/16 07:15:36;;;;;;;4.85;4.22;;;21.90;46.70;;;;;;5092267;28;20212;-71
2021/12/16 07:18:03;;;;;;;4.97;4.47;;;21.80;46.70;;;;;;5092118;28;20180;-72
2021/12/16 07:20:32;;;;;;;4.35;3.95;;;21.80;46.70;;;;;;5075258;28;20208;-71
2021/12/16 07:23:00;;;;;;;4.88;4.40;;;21.90;46.70;;;;;;5075291;28;20210;-71
2021/12/16 07:25:26;;;;;;;4.80;4.40;;;21.80;46.60;;;;;;5075172;28;20246;-71
2021/12/16 07:27:51;;;;;;;5.50;4.38;;;21.80;46.60;;;;;;5074690;28;20648;-71
2021/12/16 07:30:20;;;;;;;5.20;4.57;;;21.80;46.60;;;;;;5092103;28;20192;-71
2021/12/16 07:32:46;;;;;;;5.38;4.50;;;21.90;46.70;;;;;;5091687;28;20187;-71
2021/12/16 07:35:19;;;;;;;5.05;4.32;;;21.90;46.70;;;;;;5092938;28;20255;-72
2021/12/16 07:37:47;;;;;;;4.90;4.38;;;21.90;46.70;;;;;;5092809;28;20177;-71
2021/12/16 07:40:18;;;;;;;5.25;4.72;;;21.80;46.60;;;;;;5091881;28;20230;-72
2021/12/16 07:42:59;;;;;;;4.57;4.18;;;21.90;46.70;;;;;;5074674;28;20271;-72
2021/12/16 07:45:28;;;;;;;5.40;4.90;;;21.80;46.60;;;;;;5091573;28;20280;-72
2021/12/16 07:47:55;;;;;;;4.78;4.18;;;21.90;46.70;;;;;;5074512;28;20185;-71
2021/12/16 07:50:22;;;;;;;5.65;4.22;;;21.80;46.70;;;;;;5058001;28;20172;-72
2021/12/16 07:52:48;;;;;;;4.43;4.03;;;21.80;46.60;;;;;;5091537;28;20185;-72
2021/12/16 07:55:17;;;;;;;5.20;4.70;;;21.80;46.60;;;;;;5090864;28;20208;-72
2021/12/16 07:57:42;;;;;;;5.03;4.53;;;21.90;46.70;;;;;;5091500;28;20175;-71
2021/12/16 08:00:21;;;;;;;4.75;4.35;;;21.90;46.70;;;;;;5074446;28;20189;-71
2021/12/16 08:02:48;;;;;;;5.05;4.40;;;21.90;46.70;;;;;;5092557;28;20169;-71
2021/12/16 08:05:16;;;;;;;4.75;4.32;;;21.80;46.60;;;;;;5091256;28;20560;-72
2021/12/16 08:07:43;;;;;;;5.30;4.50;;;21.90;46.60;;;;;;5057657;28;20173;-72
2021/12/16 08:10:16;;;;;;;6.43;5.57;;;21.90;46.70;;;;;;5091371;28;20185;-71
2021/12/16 08:12:42;;;;;;;5.70;4.93;;;21.80;46.60;;;;;;5091484;28;20225;-71
2021/12/16 08:15:10;;;;;;;5.97;5.38;;;21.80;46.60;;;;;;5092530;28;20284;-72
2021/12/16 08:17:36;;;;;;;5.35;4.85;;;21.80;46.60;;;;;;5074167;28;20184;-71
2021/12/16 08:20:06;;;;;;;5.30;4.80;;;21.80;46.60;;;;;;5091114;28;20272;-72
2021/12/16 08:22:31;;;;;;;5.28;4.78;;;21.80;46.60;;;;;;5057711;28;20196;-72
2021/12/16 08:24:57;;;;;;;4.47;4.07;;;21.80;46.60;;;;;;5089251;28;20224;-72
2021/12/16 08:27:23;;;;;;;4.72;4.32;;;21.80;46.60;;;;;;5087594;28;20205;-71
2021/12/16 08:29:49;;;;;;;4.60;4.20;;;21.90;46.60;;;;;;5067357;28;20246;-72
2021/12/16 08:32:15;;;;;;;5.25;4.75;;;21.90;46.60;;;;;;5052255;28;20273;-72
2021/12/16 08:34:44;;;;;;;5.05;4.50;;;21.80;46.60;;;;;;5050689;28;20293;-71
2021/12/16 08:37:13;;;;;;;4.93;4.43;;;21.80;46.50;;;;;;5052303;28;20217;-71
2021/12/16 08:39:41;;;;;;;4.97;4.30;;;21.80;46.60;;;;;;5050243;28;20178;-71
2021/12/16 08:42:09;;;;;;;5.25;4.45;;;21.80;46.50;;;;;;5050804;28;20210;-72
2021/12/16 08:44:36;;;;;;;5.07;4.57;;;21.80;46.50;;;;;;5051855;28;20245;-71
2021/12/16 08:47:13;;;;;;;5.00;4.50;;;21.80;46.50;;;;;;5051644;28;20196;-72
2021/12/16 08:49:40;;;;;;;5.03;4.43;;;21.80;46.50;;;;;;5070873;28;20179;-72
2021/12/16 08:52:15;;;;;;;5.18;4.68;;;21.90;46.60;;;;;;5062611;28;20194;-72
2021/12/16 08:54:43;;;;;;;4.85;4.35;;;21.90;46.60;;;;;;5034382;28;20564;-71
2021/12/16 08:57:11;;;;;;;5.03;4.53;;;21.80;46.50;;;;;;5036419;28;20281;-72
2021/12/16 08:59:38;;;;;;;4.53;4.03;;;21.80;46.50;;;;;;5033904;28;20205;-72
2021/12/16 09:02:07;;;;;;;4.35;3.97;;;21.80;46.40;;;;;;5050892;28;20206;-72
2021/12/16 09:04:35;;;;;;;5.05;4.55;;;21.80;46.40;;;;;;5033883;28;20198;-71
2021/12/16 09:07:06;;;;;;;4.55;4.15;;;21.90;46.50;;;;;;5043431;28;20181;-72
2021/12/16 09:09:35;;;;;;;4.90;4.40;;;21.90;46.60;;;;;;5091313;28;20226;-72
2021/12/16 09:12:12;;;;;;;5.05;4.47;;;21.90;46.50;;;;;;5074058;28;20189;-72
2021/12/16 09:14:41;;;;;;;4.45;4.05;;;21.80;46.40;;;;;;5057395;28;20216;-72
2021/12/16 09:17:12;;;;;;;4.70;4.30;;;21.80;46.50;;;;;;5075322;28;20205;-72
2021/12/16 09:19:45;;;;;;;4.32;3.92;;;21.90;46.60;;;;;;5073903;28;20182;-71
2021/12/16 09:22:15;;;;;;;4.43;4.03;;;21.80;46.50;;;;;;5074023;28;20690;-71
2021/12/16 09:24:42;;;;;;;4.35;3.95;;;21.80;46.50;;;;;;5073929;28;20255;-72
2021/12/16 09:27:09;;;;;;;4.72;4.30;;;21.80;46.50;;;;;;5073942;28;20231;-72
2021/12/16 09:29:35;;;;;;;4.85;4.43;;;21.90;46.60;;;;;;5057333;28;20207;-71
2021/12/16 09:32:03;;;;;;;4.90;4.40;;;21.80;46.40;;;;;;5074163;28;20217;-71
2021/12/16 09:34:30;;;;;;;4.55;4.13;;;21.80;46.50;;;;;;5073737;28;20719;-71
2021/12/16 09:36:57;;;;;;;4.28;3.88;;;21.90;46.60;;;;;;5074103;28;20182;-71
2021/12/16 09:39:27;;;;;;;4.03;3.72;;;21.90;46.50;;;;;;5073460;28;20273;-71
2021/12/16 09:41:57;;;;;;;4.25;3.85;;;21.80;46.40;;;;;;5073644;28;20209;-71
2021/12/16 09:44:25;;;;;;;4.13;3.75;;;21.90;46.50;;;;;;5095497;22;20190;-70
2021/12/16 09:46:55;;;;;;;5.13;4.63;;;21.80;46.40;;;;;;5036719;28;20190;-70
2021/12/16 09:49:22;;;;;;;3.90;3.58;;;21.90;46.60;;;;;;5036084;28;20198;-70
2021/12/16 09:51:52;;;;;;;3.67;3.38;;;21.90;46.60;;;;;;5036771;28;20198;-70
2021/12/16 09:54:25;;;;;;;3.88;3.58;;;21.80;46.40;;;;;;5035077;28;20266;-70
2021/12/16 09:56:54;;;;;;;4.38;3.97;;;21.90;46.50;;;;;;5017334;28;20187;-70
2021/12/16 09:59:22;;;;;;;3.90;3.45;;;21.80;46.50;;;;;;5033001;28;20198;-70
2021/12/16 10:01:54;;;;;;;4.32;3.92;;;21.90;46.50;;;;;;5021741;28;20200;-70
2021/12/16 10:04:23;;;;;;;3.90;3.55;;;21.90;46.50;;;;;;5016766;28;20175;-70
2021/12/16 10:06:53;;;;;;;3.85;3.55;;;21.80;46.40;;;;;;5034817;28;20187;-70
2021/12/16 10:09:20;;;;;;;3.97;3.58;;;21.90;46.50;;;;;;5016617;28;20528;-70
2021/12/16 10:11:51;;;;;;;4.00;3.60;;;21.80;46.40;;;;;;5034283;28;20225;-70
2021/12/16 10:19:37;;;;;;;3.50;3.20;;;21.80;46.40;;;;;;5032376;28;20222;-71
2021/12/16 10:22:23;;;;;;;3.70;3.40;;;21.80;46.40;;;;;;5016740;28;20227;-70
2021/12/16 10:24:53;;;;;;;3.72;3.42;;;21.90;46.50;;;;;;5030597;28;20210;-70
2021/12/16 10:27:30;;;;;;;3.25;2.95;;;21.90;46.50;;;;;;5034534;28;20634;-70
2021/12/16 10:30:14;;;;;;;3.58;3.20;;;21.80;46.30;;;;;;5032853;28;20189;-70
2021/12/16 10:32:45;;;;;;;3.45;3.15;;;21.90;46.40;;;;;;5033812;28;20179;-70
2021/12/16 10:35:15;;;;;;;4.72;3.47;;;21.90;46.40;;;;;;5013487;28;20293;-70
2021/12/16 10:37:51;;;;;;;3.90;3.55;;;21.80;46.30;;;;;;5013087;28;20187;-70
2021/12/16 10:40:43;;;;;;;3.33;3.03;;;21.90;46.40;;;;;;5015567;28;20195;-70
2021/12/16 10:43:38;;;;;;;3.08;2.83;;;21.90;46.50;;;;;;5020622;28;20188;-70
2021/12/16 10:46:15;;;;;;;3.30;3.00;;;21.90;46.50;;;;;;5023931;28;20238;-70
2021/12/16 10:48:48;;;;;;;3.30;3.00;;;21.80;46.50;;;;;;5033602;28;20221;-70
2021/12/16 10:51:23;;;;;;;3.60;3.30;;;21.80;46.50;;;;;;5032388;28;20245;-71
2021/12/16 10:54:10;;;;;;;3.25;2.95;;;21.80;46.40;;;;;;5015992;28;20193;-71
2021/12/16 10:56:38;;;;;;;3.22;2.92;;;21.80;46.40;;;;;;5032676;28;20193;-70
2021/12/16 10:59:18;;;;;;;2.83;2.63;;;21.80;46.30;;;;;;5015884;28;20180;-71
2021/12/16 11:02:05;;;;;;;3.17;2.95;;;21.80;46.30;;;;;;5016057;28;20206;-71
2021/12/16 11:04:54;;;;;;;3.13;2.90;;;21.90;46.40;;;;;;5032252;28;20302;-70
2021/12/16 11:07:32;;;;;;;3.05;2.80;;;21.90;46.50;;;;;;5032109;28;20234;-71
2021/12/16 11:10:11;;;;;;;5.00;3.22;;;21.90;46.40;;;;;;5023439;28;20191;-70
2021/12/16 11:13:04;;;;;;;3.65;2.97;;;21.90;46.40;;;;;;5015930;28;20171;-71
2021/12/16 11:15:49;;;;;;;2.90;2.70;;;21.90;46.40;;;;;;5018780;28;20214;-70
2021/12/16 11:18:25;;;;;;;3.20;2.90;;;21.90;46.40;;;;;;5027148;28;20178;-70
2021/12/16 11:21:05;;;;;;;3.17;2.88;;;21.90;46.50;;;;;;5051747;28;20206;-70
2021/12/16 11:23:35;;;;;;;3.05;2.85;;;21.90;46.50;;;;;;5035212;28;20250;-71
2021/12/16 11:26:17;;;;;;;2.95;2.63;;;21.90;46.60;;;;;;5035128;28;20206;-70
2021/12/16 11:28:49;;;;;;;3.08;2.80;;;21.90;46.50;;;;;;5028127;28;20249;-73
2021/12/16 11:31:27;;;;;;;3.17;2.80;;;21.90;46.50;;;;;;5024742;28;20191;-70
2021/12/16 11:33:59;;;;;;;2.88;2.50;;;21.90;46.50;;;;;;5035213;28;20194;-70
2021/12/16 11:36:43;;;;;;;3.20;2.65;;;21.90;46.60;;;;;;5034919;28;20264;-70
2021/12/16 11:39:18;;;;;;;3.53;3.08;;;21.90;46.60;;;;;;5034297;28;20176;-70
2021/12/16 11:42:01;;;;;;;2.67;2.47;;;22.00;46.70;;;;;;5023019;28;20191;-70
2021/12/16 11:44:39;;;;;;;2.83;2.63;;;22.00;46.70;;;;;;5034203;28;20225;-70
2021/12/16 11:47:19;;;;;;;2.50;2.30;;;22.00;46.80;;;;;;5035096;28;20179;-70
2021/12/16 11:50:01;;;;;;;3.28;2.83;;;22.00;46.70;;;;;;5034901;28;20269;-70
2021/12/16 11:52:36;;;;;;;3.00;2.80;;;22.00;46.80;;;;;;5052896;28;20174;-70
2021/12/16 11:55:12;;;;;;;3.45;2.60;;;21.90;47.30;;;;;;5052441;28;20201;-71
2021/12/16 11:57:51;;;;;;;3.13;2.70;;;22.00;46.80;;;;;;5034869;28;20177;-70
2021/12/16 12:00:29;;;;;;;2.65;2.45;;;21.90;46.80;;;;;;5052703;28;20182;-71
2021/12/16 12:03:16;;;;;;;2.85;2.55;;;21.90;46.80;;;;;;5046925;28;20179;-71
2021/12/16 12:05:51;;;;;;;2.67;2.47;;;22.00;46.90;;;;;;5013830;28;20230;-71
2021/12/16 12:08:26;;;;;;;2.97;2.65;;;22.00;46.80;;;;;;5031028;28;20185;-71
2021/12/16 12:11:06;;;;;;;2.80;2.50;;;22.00;46.90;;;;;;5019031;28;20194;-70
2021/12/16 12:13:44;;;;;;;2.47;2.28;;;21.90;46.80;;;;;;5014701;28;20269;-70
2021/12/16 12:16:14;;;;;;;3.05;2.28;;;22.00;46.80;;;;;;5014893;28;20745;-70
2021/12/16 12:19:16;;;;;;;3.22;2.70;;;22.00;47.00;;;;;;5014352;28;20194;-70
2021/12/16 12:21:50;;;;;;;2.90;2.47;;;22.00;46.90;;;;;;5014579;28;20206;-70
2021/12/16 12:24:21;;;;;;;2.63;2.20;;;22.00;46.90;;;;;;5014478;28;20229;-70
2021/12/16 12:27:19;;;;;;;2.63;2.33;;;22.00;46.90;;;;;;5014184;28;20198;-71
2021/12/16 12:29:57;;;;;;;3.10;2.50;;;22.00;46.90;;;;;;5010700;28;20195;-70
2021/12/16 12:32:22;;;;;;;2.88;2.50;;;22.00;46.90;;;;;;5012419;28;20172;-70
2021/12/16 12:34:58;;;;;;;2.58;2.38;;;22.00;46.80;;;;;;5012276;28;20265;-70
2021/12/16 12:37:28;;;;;;;3.45;2.55;;;22.00;46.80;;;;;;5010854;28;20218;-69
2021/12/16 12:40:05;;;;;;;2.40;2.20;;;21.90;46.70;;;;;;5012390;28;20199;-70
2021/12/16 12:42:31;;;;;;;3.03;2.50;;;22.00;46.80;;;;;;4998260;28;20207;-71
2021/12/16 12:44:58;;;;;;;2.25;2.05;;;22.00;46.80;;;;;;4998826;28;20254;-70
2021/12/16 12:47:31;;;;;;;2.65;2.40;;;21.90;46.70;;;;;;4998583;28;20558;-70
2021/12/16 12:50:12;;;;;;;4.30;2.60;;;21.90;46.70;;;;;;4998744;28;20222;-71
2021/12/16 12:52:39;;;;;;;2.38;2.20;;;21.90;46.70;;;;;;5001821;28;20681;-70
2021/12/16 12:55:15;;;;;;;2.65;2.42;;;21.90;46.70;;;;;;5034526;28;20674;-69
2021/12/16 12:57:43;;;;;;;2.67;2.45;;;21.90;46.70;;;;;;5035632;28;20175;-70
2021/12/16 13:00:33;;;;;;;3.15;2.50;;;21.90;46.70;;;;;;5035716;28;20198;-70
2021/12/16 13:03:11;;;;;;;3.75;2.40;;;21.90;46.70;;;;;;5018295;28;20590;-70
2021/12/16 13:05:39;;;;;;;2.13;2.03;;;21.90;46.70;;;;;;5018084;28;20253;-70
2021/12/16 13:08:10;;;;;;;2.95;2.25;;;21.90;46.70;;;;;;5017853;28;20187;-70
2021/12/16 13:10:47;;;;;;;2.88;2.30;;;21.90;46.70;;;;;;5017829;28;20172;-69
2021/12/16 13:13:31;;;;;;;3.63;2.35;;;21.90;46.70;;;;;;5017975;28;20167;-70
2021/12/16 13:26:23;;;;;;;2.63;2.20;;;22.00;46.80;;;;;;5035328;28;20257;-69
2021/12/16 13:28:44;;;;;;;3.15;2.50;;;21.90;46.70;;;;;;5011972;28;20188;-70
2021/12/16 13:32:39;;;;;;;2.50;2.30;;;21.90;46.70;;;;;;5017367;28;20203;-70
2021/12/16 13:34:54;;;;;;;2.67;2.28;;;21.90;46.70;;;;;;4992215;28;20231;-70
2021/12/16 13:37:35;;;;;;;3.13;2.38;;;21.90;46.70;;;;;;5014179;28;20230;-69
2021/12/16 13:40:19;;;;;;;2.20;2.10;;;21.90;46.70;;;;;;4997709;28;20180;-70
2021/12/16 13:43:00;;;;;;;2.33;2.13;;;21.90;46.70;;;;;;5014055;28;20252;-70
2021/12/16 13:45:45;;;;;;;2.30;2.10;;;21.90;46.70;;;;;;5015020;28;20227;-71
2021/12/16 13:48:52;;;;;;;2.83;1.88;;;21.90;46.70;;;;;;4997337;28;20191;-70
2021/12/16 14:03:09;;;;;;;2.15;1.90;;;21.90;46.70;;;;;;5013864;28;20203;-68
2021/12/16 14:05:55;;;;;;;2.00;1.90;;;21.90;46.80;;;;;;5013525;28;20226;-67
2021/12/16 14:08:47;;;;;;;2.13;1.90;;;21.90;46.80;;;;;;5017807;28;20172;-68
2021/12/16 14:14:47;;;;;;;2.40;2.20;;;21.90;46.80;;;;;;5036163;28;20266;-68
2021/12/16 14:23:23;;;;;;;1.85;1.75;;;21.90;46.80;;;;;;5036606;28;20661;-68
2021/12/16 14:31:55;;;;;;;2.10;1.90;;;22.00;46.80;;;;;;5016733;28;20245;-66
2021/12/16 14:34:51;;;;;;;2.20;2.10;;;21.90;46.80;;;;;;5016185;28;20685;-68
2021/12/16 14:40:10;;;;;;;3.20;2.00;;;21.90;46.80;;;;;;5016013;28;20347;-69
2021/12/16 14:45:35;;;;;;;2.13;1.92;;;21.90;46.80;;;;;;5033680;28;20222;-69
2021/12/16 14:51:03;;;;;;;1.90;1.80;;;21.90;46.80;;;;;;5016062;28;20179;-68
2021/12/16 14:53:46;;;;;;;2.03;1.83;;;21.90;46.80;;;;;;5032398;28;20225;-68
2021/12/16 14:56:31;;;;;;;2.20;2.08;;;21.90;46.80;;;;;;5032417;28;20215;-68
2021/12/16 14:59:06;;;;;;;2.38;2.08;;;21.90;46.80;;;;;;5032177;28;20198;-69
2021/12/16 15:01:39;;;;;;;1.80;1.70;;;21.90;46.80;;;;;;5015750;28;20202;-68
2021/12/16 15:04:10;;;;;;;2.28;2.08;;;21.90;46.80;;;;;;5017180;28;20187;-68
2021/12/16 15:06:45;;;;;;;2.10;1.90;;;21.90;46.80;;;;;;5015722;28;20171;-69
2021/12/16 15:09:22;;;;;;;1.70;1.60;;;21.90;46.80;;;;;;5015763;28;20330;-69
2021/12/16 15:12:12;;;;;;;2.15;1.73;;;21.90;46.80;;;;;;5015550;28;20238;-69
2021/12/16 15:38:32;;;;;;;1.92;1.83;;;21.80;46.80;;;;;;4933038;29;20363;-68
2021/12/16 15:43:33;;;;;;;3.17;2.88;;;21.80;46.80;;;;;;4990500;28;20222;-68
2021/12/16 15:46:05;;;;;;;2.97;2.67;;;21.80;46.80;;;;;;5038938;23;20325;-72
2021/12/16 15:48:32;;;;;;;3.10;2.88;;;21.80;46.80;;;;;;5032121;28;20176;-72
2021/12/16 15:51:08;;;;;;;3.63;2.67;;;21.80;46.80;;;;;;5014951;28;20738;-72
2021/12/16 15:53:39;;;;;;;2.53;2.30;;;21.90;46.90;;;;;;4998950;28;20171;-71
2021/12/16 15:56:29;;;;;;;2.42;2.22;;;21.90;46.90;;;;;;5031469;28;20230;-71
2021/12/16 15:59:01;;;;;;;2.90;2.40;;;21.80;46.90;;;;;;5015046;28;20195;-72
2021/12/16 16:01:41;;;;;;;2.53;2.33;;;21.80;46.90;;;;;;5014731;28;20218;-72
2021/12/16 16:04:16;;;;;;;2.70;2.50;;;21.80;46.90;;;;;;5031446;28;20179;-71
2021/12/16 16:06:45;;;;;;;2.60;2.40;;;21.90;47.00;;;;;;5014804;28;20203;-72
2021/12/16 16:09:15;;;;;;;2.75;2.55;;;21.80;46.80;;;;;;4998468;28;20183;-71
2021/12/16 16:11:50;;;;;;;2.70;2.50;;;21.80;46.80;;;;;;5015065;28;20183;-72
2021/12/16 16:14:19;;;;;;;2.88;2.67;;;21.80;46.80;;;;;;5015027;28;20178;-72
2021/12/16 16:16:53;;;;;;;2.45;2.25;;;21.80;46.90;;;;;;4997122;28;20211;-73
2021/12/16 16:19:35;;;;;;;2.53;2.30;;;21.90;47.00;;;;;;5030952;28;20175;-72
2021/12/16 16:22:04;;;;;;;2.05;1.95;;;21.80;46.90;;;;;;5030929;28;20305;-73
2021/12/16 16:24:42;;;;;;;2.28;2.08;;;21.80;46.90;;;;;;4998324;28;20238;-72
2021/12/16 16:27:22;;;;;;;2.22;2.03;;;21.90;47.00;;;;;;5014528;28;20206;-72
2021/12/16 16:29:54;;;;;;;2.47;2.30;;;21.80;46.90;;;;;;4998219;28;20210;-71
2021/12/16 16:32:22;;;;;;;2.60;2.40;;;21.90;46.90;;;;;;5032063;28;20180;-72
2021/12/16 16:34:53;;;;;;;2.80;2.60;;;21.80;46.80;;;;;;5014709;28;20273;-71
2021/12/16 16:37:31;;;;;;;3.10;2.80;;;21.80;46.80;;;;;;5014666;28;20225;-72
2021/12/16 16:40:08;;;;;;;2.70;2.50;;;21.80;46.80;;;;;;5014806;28;20217;-72
2021/12/16 16:42:40;;;;;;;2.40;2.20;;;21.90;46.90;;;;;;5014599;28;20214;-72
2021/12/16 16:45:19;;;;;;;2.28;2.17;;;21.80;46.80;;;;;;5014576;28;20185;-73
2021/12/16 16:47:54;;;;;;;2.67;2.05;;;21.90;47.00;;;;;;5019506;28;20183;-73
2021/12/16 16:50:23;;;;;;;2.08;1.98;;;21.90;46.90;;;;;;5030756;28;20179;-73
2021/12/16 16:52:55;;;;;;;1.88;1.77;;;21.80;46.80;;;;;;5032041;28;20229;-73
2021/12/16 16:55:31;;;;;;;2.10;2.00;;;21.90;46.90;;;;;;5014320;28;20207;-73
2021/12/16 16:58:15;;;;;;;2.58;2.38;;;21.80;46.90;;;;;;5047228;28;20598;-74
2021/12/16 17:00:50;;;;;;;2.58;2.38;;;21.80;46.80;;;;;;5031966;28;20207;-73
2021/12/16 17:03:22;;;;;;;2.75;2.55;;;21.90;46.80;;;;;;5030999;28;20626;-73
2021/12/16 17:06:02;;;;;;;2.40;2.20;;;21.80;47.40;;;;;;5030892;28;20204;-73
2021/12/16 17:08:34;;;;;;;2.50;1.95;;;21.80;46.80;;;;;;5031743;28;20627;-71